Time;durP1;ratioP1;P1;durP2;ratioP2;P2;SDS_P1;SDS_P2;PMS_P1;PMS_P2;Temp;Humidity;BMP_temperature;BMP_pressure;BME280_temperature;BME280_humidity;BME280_pressure;Samples;Min_cycle;Max_cycle;Signal;HPM_P1;HPM_P2
2023/10/31 00:00:19;;;;;;;;;;;;;;;7.60;52.69;99433.81;5094299;28;19919;-60
2023/10/31 00:02:44;;;;;;;;;;;;;;;7.43;49.95;99428.00;5096446;28;19919;-60
2023/10/31 00:05:10;;;;;;;;;;;;;;;7.51;52.96;99435.81;5073807;28;19919;-61
2023/10/31 00:07:35;;;;;;;;;;;;;;;7.52;52.29;99439.31;5077774;28;19957;-59
2023/10/31 00:10:02;;;;;;;;;;;;;;;7.51;52.76;99448.38;5093622;28;19943;-58
2023/10/31 00:12:27;;;;;;;;;;;;;;;7.54;52.24;99454.13;5094018;28;20345;-59
2023/10/31 00:14:53;;;;;;;;;;;;;;;7.69;54.75;99463.84;5094116;28;19923;-59
2023/10/31 00:17:18;;;;;;;;;;;;;;;7.71;53.50;99459.13;5075707;28;19912;-60
2023/10/31 00:19:44;;;;;;;;;;;;;;;7.75;53.98;99460.38;5093618;28;19939;-59
2023/10/31 00:22:09;;;;;;;;;;;;;;;7.77;51.16;99450.31;5092838;28;19912;-57
2023/10/31 00:24:35;;;;;;;;;;;;;;;7.80;52.06;99451.75;5075452;28;19912;-59
2023/10/31 00:27:00;;;;;;;;;;;;;;;7.73;51.67;99457.09;5093851;28;20428;-59
2023/10/31 00:29:25;;;;;;;;;;;;;;;7.65;52.63;99444.72;5093973;28;19956;-58
2023/10/31 00:31:50;;;;;;;;;;;;;;;7.79;54.03;99447.44;5093689;28;20369;-59
2023/10/31 00:34:16;;;;;;;;;;;;;;;7.82;53.03;99457.72;5093574;28;20362;-59
2023/10/31 00:36:41;;;;;;;;;;;;;;;7.71;52.37;99457.28;5093334;28;20025;-57
2023/10/31 00:39:06;;;;;;;;;;;;;;;7.67;54.27;99461.38;5093712;28;19912;-59
2023/10/31 00:41:31;;;;;;;;;;;;;;;7.76;54.45;99464.69;5093636;28;20003;-58
2023/10/31 00:43:57;;;;;;;;;;;;;;;7.87;54.88;99455.28;5093435;28;19927;-59
2023/10/31 00:46:22;;;;;;;;;;;;;;;7.80;53.59;99463.28;5093571;28;19912;-59
2023/10/31 00:48:48;;;;;;;;;;;;;;;7.81;53.29;99445.41;5093651;28;19919;-59
2023/10/31 00:51:13;;;;;;;;;;;;;;;7.74;52.77;99456.06;5101413;28;19923;-58
2023/10/31 00:53:38;;;;;;;;;;;;;;;7.75;52.40;99449.69;5093766;28;19912;-60
2023/10/31 00:56:04;;;;;;;;;;;;;;;7.72;53.14;99455.44;5093269;28;20402;-60
2023/10/31 00:58:29;;;;;;;;;;;;;;;7.87;54.67;99453.41;5073524;28;19944;-59
2023/10/31 01:00:54;;;;;;;;;;;;;;;7.87;54.01;99453.41;5079305;28;19912;-57
2023/10/31 01:03:20;;;;;;;;;;;;;;;7.88;54.19;99449.72;5093288;28;19912;-58
2023/10/31 01:05:45;;;;;;;;;;;;;;;7.84;52.72;99451.16;5093423;28;20376;-59
2023/10/31 01:08:11;;;;;;;;;;;;;;;7.83;53.37;99452.19;5108063;28;19915;-60
2023/10/31 01:10:36;;;;;;;;;;;;;;;7.85;55.91;99458.13;5113357;28;19949;-60
2023/10/31 01:13:02;;;;;;;;;;;;;;;7.83;53.94;99449.50;5113726;28;19919;-59
2023/10/31 01:15:27;;;;;;;;;;;;;;;7.89;54.61;99461.25;5113740;28;19911;-59
2023/10/31 01:17:52;;;;;;;;;;;;;;;7.85;52.57;99458.13;5113664;28;19947;-60
2023/10/31 01:20:17;;;;;;;;;;;;;;;7.83;53.44;99460.19;5113614;28;20341;-59
2023/10/31 01:22:43;;;;;;;;;;;;;;;7.88;56.08;99465.78;5095290;28;19922;-59
2023/10/31 01:25:08;;;;;;;;;;;;;;;7.91;53.93;99460.03;5107292;28;19912;-58
2023/10/31 01:27:33;;;;;;;;;;;;;;;7.90;54.04;99466.38;5093028;28;19962;-60
2023/10/31 01:29:58;;;;;;;;;;;;;;;7.82;53.95;99453.22;5093338;28;19978;-58
2023/10/31 01:32:24;;;;;;;;;;;;;;;7.80;55.21;99468.63;5093090;28;19919;-59
2023/10/31 01:34:49;;;;;;;;;;;;;;;7.82;54.78;99457.72;5078640;28;19958;-58
2023/10/31 01:37:15;;;;;;;;;;;;;;;7.73;53.93;99457.09;5097309;28;19999;-58
2023/10/31 01:39:40;;;;;;;;;;;;;;;7.81;54.10;99448.88;5078962;28;19919;-59
2023/10/31 01:42:05;;;;;;;;;;;;;;;7.85;54.95;99442.09;5096487;28;19919;-58
2023/10/31 01:44:31;;;;;;;;;;;;;;;7.88;54.04;99428.34;5096800;28;20002;-60
2023/10/31 01:46:56;;;;;;;;;;;;;;;7.82;54.41;99431.84;5096808;28;19920;-59
2023/10/31 01:49:21;;;;;;;;;;;;;;;7.75;54.05;99439.81;5096716;28;20404;-57
2023/10/31 01:51:47;;;;;;;;;;;;;;;7.79;54.22;99434.91;5096332;28;19912;-59
2023/10/31 01:54:12;;;;;;;;;;;;;;;7.85;54.69;99438.63;5095901;28;19912;-57
2023/10/31 01:56:38;;;;;;;;;;;;;;;7.80;54.56;99430.38;5096534;28;19912;-60
2023/10/31 01:59:05;;;;;;;;;;;;;;;7.89;55.27;99426.50;5097043;28;19955;-60
2023/10/31 02:01:31;;;;;;;;;;;;;;;7.98;53.67;99419.13;5097221;28;19912;-58
2023/10/31 02:03:58;;;;;;;;;;;;;;;8.04;55.66;99418.28;5107288;28;19919;-60
2023/10/31 02:06:23;;;;;;;;;;;;;;;8.06;54.31;99416.25;5116954;28;20374;-58
2023/10/31 02:08:48;;;;;;;;;;;;;;;7.93;55.69;99419.72;5116634;28;19994;-59
2023/10/31 02:11:14;;;;;;;;;;;;;;;7.81;55.69;99422.16;5116229;28;20453;-59
2023/10/31 02:13:39;;;;;;;;;;;;;;;7.84;53.55;99435.13;5116748;28;20345;-60
2023/10/31 02:16:05;;;;;;;;;;;;;;;7.74;53.10;99432.00;5116866;28;19950;-56
2023/10/31 02:18:33;;;;;;;;;;;;;;;7.71;55.27;99432.41;5116657;28;20382;-56
2023/10/31 02:20:58;;;;;;;;;;;;;;;7.64;53.14;99427.03;5116484;28;19912;-59
2023/10/31 02:23:24;;;;;;;;;;;;;;;7.69;53.91;99437.97;5116650;28;20356;-59
2023/10/31 02:25:49;;;;;;;;;;;;;;;7.70;55.32;99438.78;5104166;28;19912;-58
2023/10/31 02:28:14;;;;;;;;;;;;;;;7.60;54.92;99439.16;5077733;28;19912;-59
2023/10/31 02:30:40;;;;;;;;;;;;;;;7.69;54.88;99442.47;5096080;28;19961;-58
2023/10/31 02:33:05;;;;;;;;;;;;;;;7.76;54.77;99427.28;5095824;28;19912;-60
2023/10/31 02:35:31;;;;;;;;;;;;;;;7.77;55.12;99428.94;5095896;28;19915;-57
2023/10/31 02:37:56;;;;;;;;;;;;;;;7.77;56.03;99428.13;5077777;28;20004;-58
2023/10/31 02:40:21;;;;;;;;;;;;;;;7.60;54.31;99404.41;5095847;28;19920;-59
2023/10/31 02:42:46;;;;;;;;;;;;;;;7.65;54.54;99431.38;5077877;28;19912;-59
2023/10/31 02:45:12;;;;;;;;;;;;;;;7.60;54.83;99424.97;5094755;28;19994;-58
2023/10/31 02:47:37;;;;;;;;;;;;;;;7.63;55.00;99421.88;5096062;28;20248;-59
2023/10/31 02:50:02;;;;;;;;;;;;;;;7.60;55.60;99419.63;5095372;28;19924;-59
2023/10/31 02:52:28;;;;;;;;;;;;;;;7.65;53.85;99417.16;5115940;28;19911;-59
2023/10/31 02:54:53;;;;;;;;;;;;;;;7.69;55.51;99423.75;5115467;28;19911;-59
2023/10/31 02:57:18;;;;;;;;;;;;;;;7.68;54.12;99416.78;5103510;28;19919;-60
2023/10/31 02:59:44;;;;;;;;;;;;;;;7.72;54.38;99410.00;5102221;27;19912;-59
2023/10/31 03:02:09;;;;;;;;;;;;;;;7.70;54.68;99417.41;5107674;28;19912;-57
2023/10/31 03:04:34;;;;;;;;;;;;;;;7.71;54.84;99417.19;5095461;28;19966;-58
2023/10/31 03:06:59;;;;;;;;;;;;;;;7.80;56.28;99430.38;5095622;28;20272;-59
2023/10/31 03:09:25;;;;;;;;;;;;;;;7.61;55.11;99431.97;5095112;28;20003;-56
2023/10/31 03:11:50;;;;;;;;;;;;;;;7.69;55.33;99429.94;5094782;28;19931;-57
2023/10/31 03:14:15;;;;;;;;;;;;;;;7.75;55.50;99433.66;5095122;28;20323;-58
2023/10/31 03:16:41;;;;;;;;;;;;;;;7.75;54.99;99439.00;5095160;28;19916;-57
2023/10/31 03:19:06;;;;;;;;;;;;;;;7.69;54.10;99440.63;5095309;28;19963;-58
2023/10/31 03:21:32;;;;;;;;;;;;;;;7.74;54.04;99438.19;5095353;28;20060;-58
2023/10/31 03:23:57;;;;;;;;;;;;;;;7.75;54.70;99452.38;5094984;28;19916;-59
2023/10/31 03:26:22;;;;;;;;;;;;;;;7.66;52.02;99442.88;5094924;28;20007;-57
2023/10/31 03:28:48;;;;;;;;;;;;;;;7.68;53.87;99446.97;5094740;28;19912;-58
2023/10/31 03:31:14;;;;;;;;;;;;;;;7.74;54.25;99450.72;5094726;28;19912;-58
2023/10/31 03:33:39;;;;;;;;;;;;;;;7.78;54.03;99448.47;5094689;28;20091;-59
2023/10/31 03:36:05;;;;;;;;;;;;;;;7.67;53.04;99447.19;5094578;28;19954;-58
2023/10/31 03:38:31;;;;;;;;;;;;;;;7.71;54.57;99459.13;5095033;28;20046;-59
2023/10/31 03:40:56;;;;;;;;;;;;;;;7.65;53.48;99454.56;5094730;28;19961;-58
2023/10/31 03:43:21;;;;;;;;;;;;;;;7.75;55.33;99466.53;5094428;28;19924;-59
2023/10/31 03:45:49;;;;;;;;;;;;;;;7.74;54.68;99464.91;5094647;28;19912;-58
2023/10/31 03:48:15;;;;;;;;;;;;;;;7.78;54.04;99453.81;5094557;28;20264;-59
2023/10/31 03:50:41;;;;;;;;;;;;;;;7.70;54.31;99452.13;5099559;28;20264;-57
2023/10/31 03:53:06;;;;;;;;;;;;;;;7.68;54.05;99460.34;5106398;28;19999;-59
2023/10/31 03:55:31;;;;;;;;;;;;;;;7.71;54.85;99448.44;5095273;28;19919;-59
2023/10/31 03:57:57;;;;;;;;;;;;;;;7.60;54.07;99454.38;5095333;28;19920;-58
2023/10/31 04:00:23;;;;;;;;;;;;;;;7.60;52.98;99452.50;5094724;28;20018;-59
2023/10/31 04:02:48;;;;;;;;;;;;;;;7.70;55.02;99454.81;5093962;28;19912;-59
2023/10/31 04:05:13;;;;;;;;;;;;;;;7.52;53.67;99453.50;5094724;28;19912;-58
2023/10/31 04:07:38;;;;;;;;;;;;;;;7.50;53.95;99454.72;5094404;28;19944;-59
2023/10/31 04:10:04;;;;;;;;;;;;;;;7.55;54.61;99450.44;5093962;28;20007;-56
2023/10/31 04:12:29;;;;;;;;;;;;;;;7.60;54.82;99443.69;5094259;28;19982;-56
2023/10/31 04:14:54;;;;;;;;;;;;;;;7.60;53.55;99436.47;5094652;28;20010;-54
2023/10/31 04:17:20;;;;;;;;;;;;;;;7.69;54.89;99432.63;5094083;28;20411;-54
2023/10/31 04:19:45;;;;;;;;;;;;;;;7.72;55.12;99439.41;5094074;28;19919;-58
2023/10/31 04:22:10;;;;;;;;;;;;;;;7.64;52.71;99442.25;5094130;28;19912;-58
2023/10/31 04:24:35;;;;;;;;;;;;;;;7.63;54.01;99433.38;5076007;28;19912;-57
2023/10/31 04:27:01;;;;;;;;;;;;;;;7.68;54.67;99438.16;5094058;28;20376;-59
2023/10/31 04:29:26;;;;;;;;;;;;;;;7.55;52.49;99441.59;5093963;28;19912;-59
2023/10/31 04:31:51;;;;;;;;;;;;;;;7.55;54.35;99438.91;5094355;28;19926;-59
2023/10/31 04:34:17;;;;;;;;;;;;;;;7.64;54.76;99440.41;5093924;28;20287;-58
2023/10/31 04:36:42;;;;;;;;;;;;;;;7.62;54.39;99433.63;5093946;28;19967;-59
2023/10/31 04:39:07;;;;;;;;;;;;;;;7.61;55.23;99438.13;5093838;28;19955;-59
2023/10/31 04:41:32;;;;;;;;;;;;;;;7.46;53.46;99427.56;5093721;28;19912;-57
2023/10/31 04:43:58;;;;;;;;;;;;;;;7.49;53.18;99423.69;5093752;28;19938;-55
2023/10/31 04:46:26;;;;;;;;;;;;;;;7.61;55.25;99430.09;5093910;28;19916;-57
2023/10/31 04:48:51;;;;;;;;;;;;;;;7.52;52.50;99432.13;5093614;28;20016;-57
2023/10/31 04:51:17;;;;;;;;;;;;;;;7.52;53.85;99429.47;5103728;28;20080;-58
2023/10/31 04:53:42;;;;;;;;;;;;;;;7.57;52.90;99427.00;5113477;28;19919;-58
2023/10/31 04:56:12;;;;;;;;;;;;;;;7.52;53.33;99441.97;5109948;28;19919;-58
2023/10/31 04:58:37;;;;;;;;;;;;;;;7.48;53.03;99428.19;5093758;28;20689;-59
2023/10/31 05:01:02;;;;;;;;;;;;;;;7.52;54.43;99434.81;5094071;28;19920;-59
2023/10/31 05:03:28;;;;;;;;;;;;;;;7.48;53.45;99435.41;5075378;28;20283;-57
2023/10/31 05:05:53;;;;;;;;;;;;;;;7.50;53.22;99434.19;5093606;28;19912;-59
2023/10/31 05:08:18;;;;;;;;;;;;;;;7.51;53.64;99432.34;5094856;28;19919;-58
2023/10/31 05:10:44;;;;;;;;;;;;;;;7.50;54.16;99444.88;5097414;28;20015;-58
2023/10/31 05:13:09;;;;;;;;;;;;;;;7.41;52.88;99445.22;5079812;28;19997;-59
2023/10/31 05:15:34;;;;;;;;;;;;;;;7.50;54.27;99436.88;5097610;28;19920;-59
2023/10/31 05:17:59;;;;;;;;;;;;;;;7.50;53.72;99442.22;5097683;28;19912;-59
2023/10/31 05:20:25;;;;;;;;;;;;;;;7.59;54.52;99436.69;5097533;28;20416;-59
2023/10/31 05:22:50;;;;;;;;;;;;;;;7.57;53.97;99447.56;5097178;28;19935;-59
2023/10/31 05:25:15;;;;;;;;;;;;;;;7.60;53.40;99449.03;5097360;28;19916;-59
2023/10/31 05:27:40;;;;;;;;;;;;;;;7.56;53.82;99446.75;5097317;28;19951;-59
2023/10/31 05:30:06;;;;;;;;;;;;;;;7.59;54.06;99455.38;5097224;28;19939;-59
2023/10/31 05:32:31;;;;;;;;;;;;;;;7.60;54.33;99470.41;5096861;28;19916;-58
2023/10/31 05:34:57;;;;;;;;;;;;;;;7.61;54.60;99458.69;5097045;28;19912;-58
2023/10/31 05:37:22;;;;;;;;;;;;;;;7.53;53.18;99467.69;5096961;28;20257;-58
2023/10/31 05:39:47;;;;;;;;;;;;;;;7.53;53.01;99479.19;5097324;28;19912;-59
2023/10/31 05:42:12;;;;;;;;;;;;;;;7.63;53.88;99478.00;5097219;28;20029;-59
2023/10/31 05:44:39;;;;;;;;;;;;;;;7.59;53.14;99484.78;5096910;28;19939;-59
2023/10/31 05:47:04;;;;;;;;;;;;;;;7.53;51.89;99481.03;5097319;28;19912;-59
2023/10/31 05:49:30;;;;;;;;;;;;;;;7.56;54.99;99489.50;5112465;28;19915;-60
2023/10/31 05:51:55;;;;;;;;;;;;;;;7.62;54.53;99497.75;5117164;28;19912;-59
2023/10/31 05:54:20;;;;;;;;;;;;;;;7.61;54.51;99504.09;5116456;28;19957;-59
2023/10/31 05:56:46;;;;;;;;;;;;;;;7.61;53.56;99502.25;5116922;28;19911;-57
2023/10/31 05:59:11;;;;;;;;;;;;;;;7.49;53.33;99498.50;5117693;28;20322;-60
2023/10/31 06:01:37;;;;;;;;;;;;;;;7.50;53.05;99505.47;5104919;28;19912;-58
2023/10/31 06:04:04;;;;;;;;;;;;;;;7.50;52.30;99500.13;5096875;28;19994;-58
2023/10/31 06:06:31;;;;;;;;;;;;;;;7.62;54.96;99505.75;5096936;28;19958;-60
2023/10/31 06:08:56;;;;;;;;;;;;;;;7.61;53.90;99507.59;5096540;28;20433;-60
2023/10/31 06:11:22;;;;;;;;;;;;;;;7.48;53.91;99505.66;5096263;28;19928;-60
2023/10/31 06:13:47;;;;;;;;;;;;;;;7.52;54.41;99506.94;5096561;28;19912;-59
2023/10/31 06:16:13;;;;;;;;;;;;;;;7.47;55.14;99503.22;5096445;28;19954;-59
2023/10/31 06:18:39;;;;;;;;;;;;;;;7.53;55.15;99502.41;5096227;28;19969;-60
2023/10/31 06:21:05;;;;;;;;;;;;;;;7.43;53.66;99502.78;5078236;28;19912;-60
2023/10/31 06:23:30;;;;;;;;;;;;;;;7.51;53.36;99499.94;5096468;28;19919;-59
2023/10/31 06:25:55;;;;;;;;;;;;;;;7.51;52.44;99499.13;5096980;28;19919;-60
2023/10/31 06:28:20;;;;;;;;;;;;;;;7.40;52.31;99495.16;5096275;28;20376;-59
2023/10/31 06:30:46;;;;;;;;;;;;;;;7.35;54.59;99498.44;5096083;28;19916;-60
2023/10/31 06:33:11;;;;;;;;;;;;;;;7.42;54.57;99503.78;5096439;28;20379;-60
2023/10/31 06:35:37;;;;;;;;;;;;;;;7.37;52.29;99503.56;5096105;28;20322;-59
2023/10/31 06:38:02;;;;;;;;;;;;;;;7.42;54.42;99501.13;5096083;28;19919;-58
2023/10/31 06:40:29;;;;;;;;;;;;;;;7.37;51.94;99506.22;5096071;28;19918;-60
2023/10/31 06:42:54;;;;;;;;;;;;;;;7.42;53.33;99511.81;5095762;28;19995;-60
2023/10/31 06:45:19;;;;;;;;;;;;;;;7.42;52.95;99514.47;5107562;27;19911;-55
2023/10/31 06:47:45;;;;;;;;;;;;;;;7.47;53.68;99503.22;5116480;28;20423;-57
2023/10/31 06:50:10;;;;;;;;;;;;;;;7.40;52.12;99518.38;5116254;28;20011;-59
2023/10/31 06:52:35;;;;;;;;;;;;;;;7.52;54.77;99516.78;5096053;28;19916;-60
2023/10/31 06:55:01;;;;;;;;;;;;;;;7.40;54.01;99513.03;5095233;28;19912;-60
2023/10/31 06:57:26;;;;;;;;;;;;;;;7.45;53.58;99526.63;5095724;28;20268;-57
2023/10/31 06:59:51;;;;;;;;;;;;;;;7.45;53.34;99529.31;5095688;28;20072;-59
2023/10/31 07:02:17;;;;;;;;;;;;;;;7.44;53.75;99528.47;5095690;28;20315;-60
2023/10/31 07:04:42;;;;;;;;;;;;;;;7.51;53.60;99536.53;5095397;28;20295;-59
2023/10/31 07:07:07;;;;;;;;;;;;;;;7.60;53.87;99540.69;5095271;28;20273;-59
2023/10/31 07:09:33;;;;;;;;;;;;;;;7.69;54.31;99550.19;5095391;28;19916;-60
2023/10/31 07:11:58;;;;;;;;;;;;;;;7.63;53.56;99552.81;5095086;28;20469;-60
2023/10/31 07:14:23;;;;;;;;;;;;;;;7.57;52.41;99549.91;5095374;28;19935;-57
2023/10/31 07:16:48;;;;;;;;;;;;;;;7.50;53.09;99542.88;5095103;28;19947;-59
2023/10/31 07:19:14;;;;;;;;;;;;;;;7.44;52.49;99541.81;5094990;28;20002;-58
2023/10/31 07:21:39;;;;;;;;;;;;;;;7.45;54.13;99553.34;5095087;28;19965;-58
2023/10/31 07:24:05;;;;;;;;;;;;;;;7.47;52.35;99551.31;5094907;28;19934;-57
2023/10/31 07:26:30;;;;;;;;;;;;;;;7.53;53.78;99543.31;5094932;28;19916;-58
2023/10/31 07:28:55;;;;;;;;;;;;;;;7.41;52.16;99538.72;5095071;28;20288;-57
2023/10/31 07:31:21;;;;;;;;;;;;;;;7.41;53.08;99555.59;5094287;28;19996;-58
2023/10/31 07:33:47;;;;;;;;;;;;;;;7.47;53.28;99553.97;5094673;28;19912;-60
2023/10/31 07:36:12;;;;;;;;;;;;;;;7.48;52.48;99556.41;5094439;28;19912;-59
2023/10/31 07:38:37;;;;;;;;;;;;;;;7.59;54.40;99565.75;5085626;28;19919;-58
2023/10/31 07:41:03;;;;;;;;;;;;;;;7.62;52.92;99553.84;5094666;27;20357;-58
2023/10/31 07:43:28;;;;;;;;;;;;;;;7.68;53.56;99555.72;5094534;28;19912;-59
2023/10/31 07:45:53;;;;;;;;;;;;;;;7.69;53.65;99560.88;5094779;28;19957;-59
2023/10/31 07:48:19;;;;;;;;;;;;;;;7.57;52.57;99551.75;5094616;28;20388;-58
2023/10/31 07:50:44;;;;;;;;;;;;;;;7.63;53.06;99556.31;5099691;28;19916;-58
2023/10/31 07:53:09;;;;;;;;;;;;;;;7.70;53.61;99559.84;5114748;28;19911;-59
2023/10/31 07:55:34;;;;;;;;;;;;;;;7.77;54.86;99565.25;5114021;28;20384;-59
2023/10/31 07:58:00;;;;;;;;;;;;;;;7.79;53.58;99573.88;5114656;28;19937;-60
2023/10/31 08:00:25;;;;;;;;;;;;;;;7.73;52.96;99562.13;5114738;28;19912;-58
2023/10/31 08:02:50;;;;;;;;;;;;;;;7.81;54.51;99581.72;5100882;28;19935;-60
2023/10/31 08:05:15;;;;;;;;;;;;;;;7.86;53.73;99584.63;5094359;28;19962;-60
2023/10/31 08:07:41;;;;;;;;;;;;;;;7.86;53.71;99574.75;5094419;28;19916;-60
2023/10/31 08:10:06;;;;;;;;;;;;;;;7.84;53.41;99571.44;5093599;28;20373;-60
2023/10/31 08:12:32;;;;;;;;;;;;;;;7.81;52.80;99573.69;5094571;28;19945;-60
2023/10/31 08:14:58;;;;;;;;;;;;;;;7.77;51.90;99564.41;5094215;28;20369;-59
2023/10/31 08:17:23;;;;;;;;;;;;;;;7.89;53.50;99573.50;5094390;28;19920;-60
2023/10/31 08:19:49;;;;;;;;;;;;;;;7.81;52.60;99571.84;5094472;28;20035;-60
2023/10/31 08:22:14;;;;;;;;;;;;;;;7.87;53.42;99573.72;5094968;28;19923;-58
2023/10/31 08:24:39;;;;;;;;;;;;;;;7.82;53.16;99570.81;5094900;28;20002;-59
2023/10/31 08:27:05;;;;;;;;;;;;;;;7.71;52.51;99563.38;5094978;28;19919;-58
2023/10/31 08:29:30;;;;;;;;;;;;;;;7.81;52.64;99568.34;5094001;28;19958;-58
2023/10/31 08:31:56;;;;;;;;;;;;;;;7.92;53.43;99578.47;5093966;28;19916;-60
2023/10/31 08:34:21;;;;;;;;;;;;;;;7.92;53.05;99568.59;5093957;28;19920;-59
2023/10/31 08:36:46;;;;;;;;;;;;;;;7.94;52.86;99560.38;5096524;28;19919;-60
2023/10/31 08:39:11;;;;;;;;;;;;;;;7.95;52.89;99570.88;5113986;28;20284;-61
2023/10/31 08:41:39;;;;;;;;;;;;;;;7.79;52.24;99549.81;5095722;28;19917;-61
2023/10/31 08:44:04;;;;;;;;;;;;;;;7.85;53.50;99567.72;5113248;28;19994;-60
2023/10/31 08:46:30;;;;;;;;;;;;;;;7.82;51.20;99551.25;5114350;28;19995;-61
2023/10/31 08:48:55;;;;;;;;;;;;;;;7.85;53.05;99558.91;5113950;28;20387;-61
2023/10/31 08:51:20;;;;;;;;;;;;;;;7.94;52.71;99555.84;5113970;28;20020;-60
2023/10/31 08:53:46;;;;;;;;;;;;;;;7.87;51.37;99560.34;5113245;28;19912;-61
2023/10/31 08:56:11;;;;;;;;;;;;;;;7.87;51.63;99560.34;5113583;28;20023;-60
2023/10/31 08:58:36;;;;;;;;;;;;;;;7.82;52.65;99560.13;5113795;28;19919;-61
2023/10/31 09:01:01;;;;;;;;;;;;;;;7.91;51.90;99566.13;5113987;28;19923;-61
2023/10/31 09:03:26;;;;;;;;;;;;;;;7.92;53.04;99579.28;5094710;28;19912;-61
2023/10/31 09:05:52;;;;;;;;;;;;;;;7.91;53.70;99561.63;5093763;28;19913;-61
2023/10/31 09:08:18;;;;;;;;;;;;;;;7.86;52.41;99569.41;5093666;28;19950;-59
2023/10/31 09:10:45;;;;;;;;;;;;;;;7.91;53.03;99571.47;5092972;28;20369;-61
2023/10/31 09:13:11;;;;;;;;;;;;;;;7.97;53.04;99567.16;5093408;28;19916;-59
2023/10/31 09:15:36;;;;;;;;;;;;;;;7.95;53.07;99575.41;5093608;28;20438;-59
2023/10/31 09:18:02;;;;;;;;;;;;;;;8.00;53.09;99580.97;5093370;28;19920;-60
2023/10/31 09:20:27;;;;;;;;;;;;;;;8.01;52.53;99574.59;5093624;28;19912;-61
2023/10/31 09:22:52;;;;;;;;;;;;;;;8.01;52.56;99577.28;5093043;28;19916;-59
2023/10/31 09:25:18;;;;;;;;;;;;;;;7.98;51.34;99575.00;5093433;28;20004;-60
2023/10/31 09:27:43;;;;;;;;;;;;;;;7.98;53.12;99575.00;5093549;28;20007;-58
2023/10/31 09:30:08;;;;;;;;;;;;;;;7.93;52.99;99583.63;5093284;28;19917;-60
2023/10/31 09:32:34;;;;;;;;;;;;;;;7.91;52.64;99576.81;5093866;28;19913;-60
2023/10/31 09:34:59;;;;;;;;;;;;;;;7.93;51.64;99572.94;5109013;28;20407;-59
2023/10/31 09:37:26;;;;;;;;;;;;;;;7.96;53.38;99569.03;5093737;28;19916;-58
2023/10/31 09:39:51;;;;;;;;;;;;;;;7.98;52.68;99563.50;5093621;28;20312;-58
2023/10/31 09:42:16;;;;;;;;;;;;;;;8.07;54.51;99571.13;5093612;28;20315;-59
2023/10/31 09:44:41;;;;;;;;;;;;;;;8.07;52.34;99575.66;5109623;28;19916;-60
2023/10/31 09:47:07;;;;;;;;;;;;;;;8.12;53.34;99565.19;5093527;28;19912;-60
2023/10/31 09:49:32;;;;;;;;;;;;;;;8.08;53.39;99572.78;5093900;28;19917;-61
2023/10/31 09:51:59;;;;;;;;;;;;;;;8.21;52.75;99577.38;5093504;28;19994;-61
2023/10/31 09:54:25;;;;;;;;;;;;;;;8.23;53.50;99567.28;5094196;28;20377;-59
2023/10/31 09:56:50;;;;;;;;;;;;;;;8.22;53.74;99560.28;5097150;28;19919;-61
2023/10/31 09:59:16;;;;;;;;;;;;;;;8.27;53.39;99578.41;5097488;28;19912;-61
2023/10/31 10:01:41;;;;;;;;;;;;;;;8.14;51.51;99555.94;5097057;28;19916;-60
2023/10/31 10:04:07;;;;;;;;;;;;;;;8.12;53.25;99568.69;5097254;28;19995;-61
2023/10/31 10:06:32;;;;;;;;;;;;;;;8.13;53.43;99574.84;5097466;28;20268;-59
2023/10/31 10:08:57;;;;;;;;;;;;;;;8.07;53.33;99562.28;5090633;28;19912;-56
2023/10/31 10:11:23;;;;;;;;;;;;;;;8.07;50.86;99570.31;5086589;28;20481;-59
2023/10/31 10:13:48;;;;;;;;;;;;;;;8.04;52.47;99576.91;5097107;28;20287;-60
2023/10/31 10:16:27;;;;;;;;;;;;;;;8.12;52.27;99558.00;5096760;28;19912;-60
2023/10/31 10:18:52;;;;;;;;;;;;;;;8.13;52.43;99565.00;5097166;28;19922;-58
2023/10/31 10:21:17;;;;;;;;;;;;;;;8.17;52.36;99564.59;5097016;28;19999;-60
2023/10/31 10:23:46;;;;;;;;;;;;;;;8.33;52.56;99553.53;5096966;28;19912;-60
2023/10/31 10:26:11;;;;;;;;;;;;;;;8.37;52.38;99554.78;5096939;28;19918;-60
2023/10/31 10:28:37;;;;;;;;;;;;;;;8.38;52.05;99558.28;5130328;27;20003;-58
2023/10/31 10:31:02;;;;;;;;;;;;;;;8.34;52.32;99571.25;5115100;28;19915;-60
2023/10/31 10:33:27;;;;;;;;;;;;;;;8.33;51.87;99569.59;5117883;28;19912;-60
2023/10/31 10:35:54;;;;;;;;;;;;;;;8.36;52.09;99571.88;5106747;28;19916;-60
2023/10/31 10:38:19;;;;;;;;;;;;;;;8.34;53.01;99560.53;5097650;28;19981;-60
2023/10/31 10:40:48;;;;;;;;;;;;;;;8.20;52.50;99569.53;5098123;28;20411;-60
2023/10/31 10:43:20;;;;;;;;;;;;;;;8.07;52.16;99573.00;5097546;28;19912;-58
2023/10/31 10:45:45;;;;;;;;;;;;;;;8.07;52.66;99576.47;5097178;28;19912;-60
2023/10/31 10:48:12;;;;;;;;;;;;;;;8.15;53.56;99562.09;5097625;28;19966;-61
2023/10/31 10:50:41;;;;;;;;;;;;;;;8.17;53.03;99561.91;5098073;28;19998;-61
2023/10/31 10:53:13;;;;;;;;;;;;;;;8.29;53.53;99563.00;5097863;28;19934;-61
2023/10/31 10:55:42;;;;;;;;;;;;;;;8.31;51.99;99566.28;5097307;28;19916;-61
2023/10/31 10:58:22;;;;;;;;;;;;;;;8.29;52.71;99563.81;5077149;28;19912;-60
2023/10/31 11:00:48;;;;;;;;;;;;;;;8.22;52.35;99551.44;5082487;28;19947;-60
2023/10/31 11:03:14;;;;;;;;;;;;;;;8.17;51.70;99560.06;5097209;28;19912;-60
2023/10/31 11:05:40;;;;;;;;;;;;;;;8.20;52.07;99558.84;5096235;28;19935;-58
2023/10/31 11:08:06;;;;;;;;;;;;;;;8.24;51.21;99566.25;5097371;28;19912;-60
2023/10/31 11:10:31;;;;;;;;;;;;;;;8.19;53.10;99560.69;5096673;28;19966;-60
2023/10/31 11:12:57;;;;;;;;;;;;;;;8.29;51.68;99566.47;5096754;28;20323;-60
2023/10/31 11:15:23;;;;;;;;;;;;;;;8.22;52.33;99557.59;5097228;28;19912;-60
2023/10/31 11:17:50;;;;;;;;;;;;;;;8.26;52.56;99558.03;5096833;28;20288;-59
2023/10/31 11:20:16;;;;;;;;;;;;;;;8.29;51.71;99550.44;5078916;28;19931;-60
2023/10/31 11:22:44;;;;;;;;;;;;;;;8.35;51.97;99551.47;5097280;28;19919;-60
2023/10/31 11:25:19;;;;;;;;;;;;;;;8.34;53.17;99548.00;5097180;28;19912;-60
2023/10/31 11:27:45;;;;;;;;;;;;;;;8.29;52.79;99552.28;5076749;28;19912;-60
2023/10/31 11:30:20;;;;;;;;;;;;;;;8.43;51.64;99554.03;5076718;28;19962;-60
2023/10/31 11:32:51;;;;;;;;;;;;;;;8.44;52.58;99544.13;5076479;28;19948;-60
2023/10/31 11:35:17;;;;;;;;;;;;;;;8.38;52.64;99545.72;5064482;28;19983;-59
2023/10/31 11:37:43;;;;;;;;;;;;;;;8.39;53.03;99552.72;5096507;28;19912;-60
2023/10/31 11:40:18;;;;;;;;;;;;;;;8.34;52.23;99556.00;5096735;28;19957;-58
2023/10/31 11:42:46;;;;;;;;;;;;;;;8.43;52.22;99551.34;5096318;28;20007;-58
2023/10/31 11:45:12;;;;;;;;;;;;;;;8.42;52.64;99555.03;5096383;28;19999;-60
2023/10/31 11:47:47;;;;;;;;;;;;;;;8.30;51.93;99552.09;5096192;28;19940;-59
2023/10/31 11:50:12;;;;;;;;;;;;;;;8.38;51.94;99566.31;5096536;28;20268;-59
2023/10/31 11:52:38;;;;;;;;;;;;;;;8.40;52.93;99565.09;5096866;28;19912;-59
2023/10/31 11:55:04;;;;;;;;;;;;;;;8.35;51.23;99559.50;5095640;28;19966;-59
2023/10/31 11:57:30;;;;;;;;;;;;;;;8.39;52.54;99535.84;5096431;28;19912;-58
2023/10/31 11:59:55;;;;;;;;;;;;;;;8.29;52.01;99550.44;5096190;28;19943;-59
2023/10/31 12:02:20;;;;;;;;;;;;;;;8.28;51.10;99542.59;5086243;28;19959;-59
2023/10/31 12:04:46;;;;;;;;;;;;;;;8.27;52.09;99560.50;5076101;28;20345;-59
2023/10/31 12:07:11;;;;;;;;;;;;;;;8.24;52.82;99547.53;5084966;28;19920;-58
2023/10/31 12:09:48;;;;;;;;;;;;;;;8.24;52.88;99547.53;5096565;28;20011;-59
2023/10/31 12:12:14;;;;;;;;;;;;;;;8.28;52.74;99550.63;5095907;28;19931;-59
2023/10/31 12:14:39;;;;;;;;;;;;;;;8.22;51.64;99538.88;5095563;28;19912;-59
2023/10/31 12:17:06;;;;;;;;;;;;;;;8.18;52.23;99542.19;5095755;28;20373;-59
2023/10/31 12:19:32;;;;;;;;;;;;;;;8.10;51.57;99535.97;5095615;28;19915;-59
2023/10/31 12:21:57;;;;;;;;;;;;;;;8.16;50.98;99547.72;5099675;28;19912;-58
2023/10/31 12:24:23;;;;;;;;;;;;;;;8.01;51.06;99545.19;5097710;28;19912;-59
2023/10/31 12:26:48;;;;;;;;;;;;;;;8.05;53.34;99556.31;5111645;28;19947;-58
2023/10/31 12:29:14;;;;;;;;;;;;;;;7.94;52.09;99549.69;5095666;28;19916;-59
2023/10/31 12:31:42;;;;;;;;;;;;;;;7.99;52.98;99551.78;5095148;28;19912;-58
2023/10/31 12:34:07;;;;;;;;;;;;;;;8.10;51.68;99548.53;5095249;28;19912;-59
2023/10/31 12:36:35;;;;;;;;;;;;;;;8.16;52.28;99544.22;5094886;28;19919;-58
2023/10/31 12:39:00;;;;;;;;;;;;;;;8.11;52.43;99547.50;5094948;28;19995;-58
2023/10/31 12:41:27;;;;;;;;;;;;;;;8.14;51.60;99544.44;5094457;28;20353;-59
2023/10/31 12:43:52;;;;;;;;;;;;;;;8.23;52.08;99555.78;5094364;28;19920;-58
2023/10/31 12:46:29;;;;;;;;;;;;;;;8.32;51.92;99550.03;5076473;28;19912;-58
2023/10/31 12:48:54;;;;;;;;;;;;;;;8.28;53.30;99538.09;5094803;28;19919;-57